Time;durP1;ratioP1;P1;durP2;ratioP2;P2;SDS_P1;SDS_P2;PMS_P1;PMS_P2;Temp;Humidity;BMP_temperature;BMP_pressure;BME280_temperature;BME280_humidity;BME280_pressure;Samples;Min_cycle;Max_cycle;Signal;HPM_P1;HPM_P2
2022/02/02 00:00:18;;;;;;;41.45;4.22;;;8.50;99.90;;;;;;5013096;28;20432;-38
2022/02/02 00:02:51;;;;;;;38.28;5.60;;;8.50;99.90;;;;;;5003478;28;20021;-32
2022/02/02 00:08:07;;;;;;;34.55;4.57;;;8.60;99.90;;;;;;5010499;28;20130;-30
2022/02/02 00:13:05;;;;;;;34.30;4.25;;;8.60;99.90;;;;;;5011791;28;20038;-35
2022/02/02 00:20:49;;;;;;;36.30;5.05;;;8.70;99.90;;;;;;4995452;28;20030;-32
2022/02/02 00:23:18;;;;;;;28.02;4.30;;;8.60;99.90;;;;;;4999677;28;20094;-33
2022/02/02 00:25:51;;;;;;;35.08;5.43;;;8.60;99.90;;;;;;5014110;28;20494;-35
2022/02/02 00:28:21;;;;;;;41.95;5.53;;;8.60;99.90;;;;;;5013683;28;20033;-35
2022/02/02 00:30:47;;;;;;;19.67;3.53;;;8.60;99.90;;;;;;5013878;28;20129;-34
2022/02/02 00:33:26;;;;;;;29.48;3.88;;;8.60;99.90;;;;;;5010340;28;20109;-33
2022/02/02 00:36:02;;;;;;;33.17;5.22;;;8.60;99.90;;;;;;5013687;28;20437;-34
2022/02/02 00:38:28;;;;;;;26.95;4.47;;;8.60;99.90;;;;;;5012300;28;20030;-36
2022/02/02 00:40:54;;;;;;;47.38;5.00;;;8.60;99.90;;;;;;5013892;28;20041;-42
2022/02/02 00:43:19;;;;;;;33.35;4.38;;;8.60;99.90;;;;;;5012714;28;20022;-33
2022/02/02 00:45:47;;;;;;;29.17;4.47;;;8.60;99.90;;;;;;4994745;28;20154;-33
2022/02/02 00:48:15;;;;;;;37.05;5.45;;;8.50;99.90;;;;;;4994103;28;20049;-48
2022/02/02 00:50:40;;;;;;;;;;;8.50;99.90;;;;;;4993185;28;20034;-34
2022/02/02 00:53:07;;;;;;;45.67;5.30;;;8.50;99.90;;;;;;4998757;28;19916;-30
2022/02/02 00:55:33;;;;;;;38.33;5.75;;;8.40;99.90;;;;;;5013299;28;20079;-37
2022/02/02 00:57:59;;;;;;;43.80;5.15;;;8.40;99.90;;;;;;5011990;28;20453;-36
2022/02/02 01:00:25;;;;;;;31.67;3.65;;;8.40;99.90;;;;;;5013291;28;20097;-31
2022/02/02 01:02:51;;;;;;;37.13;4.90;;;8.40;99.90;;;;;;5012838;28;20161;-33
2022/02/02 01:05:17;;;;;;;49.90;4.80;;;8.30;99.90;;;;;;5005803;28;20025;-31
2022/02/02 01:11:28;;;;;;;28.75;4.93;;;8.30;99.90;;;;;;5011079;28;20111;-35
2022/02/02 01:13:40;;;;;;;27.48;4.10;;;8.30;99.90;;;;;;5001569;28;20033;-34
2022/02/02 01:18:48;;;;;;;38.75;4.88;;;8.30;99.90;;;;;;4993617;28;20030;-37
2022/02/02 01:21:29;;;;;;;21.55;4.55;;;8.30;99.90;;;;;;5001699;28;20380;-34
2022/02/02 01:29:23;;;;;;;36.75;4.93;;;8.20;99.90;;;;;;5012830;28;20454;-53
2022/02/02 01:31:49;;;;;;;46.35;5.25;;;8.20;99.90;;;;;;5011273;28;20030;-36
2022/02/02 01:34:14;;;;;;;37.83;5.18;;;8.20;99.90;;;;;;5010887;28;20042;-35
2022/02/02 01:36:40;;;;;;;36.35;5.30;;;8.20;99.90;;;;;;4993502;28;20108;-34
2022/02/02 01:39:09;;;;;;;34.40;5.20;;;8.20;99.90;;;;;;5008803;28;20033;-35
2022/02/02 01:41:38;;;;;;;31.00;5.00;;;8.20;99.90;;;;;;5011412;28;20041;-31
2022/02/02 01:44:13;;;;;;;47.35;7.40;;;8.10;99.90;;;;;;5012022;28;20444;-34
2022/02/02 01:46:40;;;;;;;33.15;4.90;;;8.10;99.90;;;;;;5012747;28;20022;-31
2022/02/02 01:52:12;;;;;;;31.73;5.38;;;8.10;99.90;;;;;;5012486;28;20104;-33
2022/02/02 01:59:52;;;;;;;35.72;4.18;;;8.10;99.90;;;;;;5012819;28;20030;-33
2022/02/02 02:02:18;;;;;;;29.05;4.60;;;8.10;99.90;;;;;;5011801;28;20030;-35
2022/02/02 02:04:44;;;;;;;30.33;5.35;;;8.10;99.90;;;;;;5012964;28;20037;-35
2022/02/02 02:07:09;;;;;;;21.02;3.72;;;8.10;99.90;;;;;;5016391;28;20038;-31
2022/02/02 02:09:35;;;;;;;39.33;4.53;;;8.10;99.90;;;;;;5015769;28;20031;-34
2022/02/02 02:12:04;;;;;;;36.15;4.68;;;8.10;99.90;;;;;;5016457;28;20029;-34
2022/02/02 02:14:45;;;;;;;29.48;5.35;;;8.20;99.90;;;;;;5016244;28;20026;-37
2022/02/02 02:17:12;;;;;;;33.80;4.63;;;8.20;99.90;;;;;;5011486;28;20394;-35
2022/02/02 02:19:42;;;;;;;29.00;4.23;;;8.30;99.90;;;;;;5011433;28;20025;-35
2022/02/02 02:22:11;;;;;;;48.55;5.82;;;8.30;99.90;;;;;;4996622;28;20019;-30
2022/02/02 02:24:39;;;;;;;35.08;4.22;;;8.30;99.90;;;;;;4996766;28;20026;-34
2022/02/02 02:27:05;;;;;;;29.42;4.95;;;8.20;99.90;;;;;;5008819;28;20029;-32
2022/02/02 02:29:50;;;;;;;29.45;4.28;;;8.30;99.90;;;;;;5015979;28;20037;-33
2022/02/02 02:56:49;;;;;;;24.00;4.93;;;8.40;99.90;;;;;;4996155;28;20072;-34
2022/02/02 02:59:19;;;;;;;28.25;3.88;;;8.40;99.90;;;;;;4995672;28;20038;-36
2022/02/02 03:49:25;;;;;;;38.20;6.43;;;8.50;99.90;;;;;;5004333;28;20044;-34
2022/02/02 04:06:54;;;;;;;39.70;6.32;;;8.40;99.90;;;;;;5014100;28;20113;-32
2022/02/02 04:09:19;;;;;;;34.63;5.65;;;8.50;99.90;;;;;;5014405;28;20029;-35
2022/02/02 04:11:54;;;;;;;39.05;5.07;;;8.40;99.90;;;;;;5014437;28;20087;-33
2022/02/02 04:17:42;;;;;;;46.38;4.15;;;8.50;99.90;;;;;;5010048;28;20625;-30
2022/02/02 04:58:23;;;;;;;42.70;7.25;;;8.40;99.90;;;;;;5013599;28;20052;-32
2022/02/02 05:48:39;;;;;;;22.17;4.45;;;8.30;99.90;;;;;;5017153;28;20042;-35
2022/02/02 05:51:23;;;;;;;32.67;4.47;;;8.30;99.90;;;;;;4997507;28;20422;-35
2022/02/02 05:53:50;;;;;;;21.35;4.05;;;8.30;99.90;;;;;;4997581;28;20041;-37
2022/02/02 05:56:16;;;;;;;20.77;3.33;;;8.30;99.90;;;;;;4997471;28;20030;-37
2022/02/02 05:58:45;;;;;;;22.40;4.18;;;8.30;99.90;;;;;;4997313;28;20023;-33
2022/02/02 06:01:12;;;;;;;29.77;3.42;;;8.30;99.90;;;;;;4997363;28;20030;-32
2022/02/02 06:03:54;;;;;;;17.57;2.57;;;8.30;99.90;;;;;;4997019;28;20100;-33
2022/02/02 06:06:23;;;;;;;32.50;5.10;;;8.40;99.90;;;;;;5007715;28;20030;-31
2022/02/02 06:08:49;;;;;;;;;;;8.40;99.90;;;;;;5016930;28;20037;-32
2022/02/02 06:11:17;;;;;;;24.45;2.92;;;8.30;99.90;;;;;;5016411;28;19911;-32
2022/02/02 06:13:51;;;;;;;17.70;3.08;;;8.40;99.90;;;;;;5006434;28;20031;-32
2022/02/02 06:16:18;;;;;;;22.55;3.63;;;8.30;99.90;;;;;;4997012;28;20040;-31
2022/02/02 06:18:46;;;;;;;28.63;3.38;;;8.30;99.90;;;;;;4996838;28;20038;-34
2022/02/02 06:21:15;;;;;;;;;;;8.20;99.90;;;;;;5014190;28;20531;-32
2022/02/02 06:23:45;;;;;;;34.95;4.53;;;8.20;99.90;;;;;;5016500;28;19916;-34
2022/02/02 06:26:16;;;;;;;23.85;4.38;;;8.20;99.90;;;;;;5016562;28;20076;-31
2022/02/02 06:28:47;;;;;;;25.25;3.83;;;8.20;99.90;;;;;;5015703;28;20084;-33
2022/02/02 06:31:14;;;;;;;37.78;4.65;;;8.10;99.90;;;;;;5015984;28;20033;-33
2022/02/02 06:33:42;;;;;;;34.50;3.58;;;8.10;99.90;;;;;;5014703;28;20060;-32
2022/02/02 06:36:10;;;;;;;26.90;3.38;;;8.10;99.90;;;;;;5016206;28;20030;-30
2022/02/02 06:38:42;;;;;;;40.65;5.18;;;8.20;99.90;;;;;;5016137;28;20065;-38
2022/02/02 06:41:08;;;;;;;29.70;5.28;;;8.10;99.90;;;;;;5015132;28;20018;-36
2022/02/02 06:43:34;;;;;;;22.30;4.15;;;8.00;99.90;;;;;;5012765;28;20131;-31
2022/02/02 06:46:02;;;;;;;29.73;4.18;;;8.00;99.90;;;;;;5015707;28;20501;-37
2022/02/02 06:48:30;;;;;;;32.30;5.68;;;8.10;99.90;;;;;;5016015;28;20526;-33
2022/02/02 06:51:21;;;;;;;38.05;6.28;;;8.10;99.90;;;;;;5015724;28;20026;-32
2022/02/02 06:54:07;;;;;;;34.80;4.55;;;8.10;99.90;;;;;;5015954;28;20109;-36
2022/02/02 06:56:44;;;;;;;32.75;3.28;;;8.10;99.90;;;;;;5013173;28;20390;-30
2022/02/02 06:59:40;;;;;;;36.83;5.05;;;8.00;99.90;;;;;;5015225;28;20079;-31
2022/02/02 07:02:27;;;;;;;41.47;4.82;;;8.00;99.90;;;;;;5003910;28;20022;-31
2022/02/02 07:10:28;;;;;;;32.75;5.45;;;8.00;99.90;;;;;;4996019;28;20072;-34
2022/02/02 07:13:14;;;;;;;24.50;4.75;;;8.00;99.90;;;;;;4995429;28;20125;-30
2022/02/02 07:22:02;;;;;;;25.65;3.63;;;7.90;99.90;;;;;;4993441;28;20173;-35
2022/02/02 07:27:37;;;;;;;36.80;4.72;;;8.00;99.90;;;;;;4995372;28;20088;-35
2022/02/02 07:32:43;;;;;;;18.83;3.25;;;7.90;99.90;;;;;;4995551;28;20034;-31
2022/02/02 07:35:24;;;;;;;32.10;5.03;;;7.90;99.90;;;;;;4999331;28;20364;-30
2022/02/02 07:38:15;;;;;;;28.95;4.47;;;7.90;99.90;;;;;;5014888;28;20021;-30
2022/02/02 07:40:44;;;;;;;43.38;6.50;;;7.90;99.90;;;;;;5014663;28;20026;-36
2022/02/02 07:43:21;;;;;;;41.60;6.50;;;7.90;99.90;;;;;;5014648;28;20022;-34
2022/02/02 07:46:01;;;;;;;40.60;6.05;;;7.90;99.90;;;;;;5014588;28;20018;-34
2022/02/02 07:48:35;;;;;;;36.50;4.97;;;7.90;99.90;;;;;;5014572;28;20037;-34
2022/02/02 07:51:05;;;;;;;30.60;4.05;;;7.90;99.90;;;;;;5014425;28;20493;-42
2022/02/02 07:53:42;;;;;;;28.90;4.85;;;7.90;99.90;;;;;;5001335;28;20026;-34
2022/02/02 07:56:13;;;;;;;34.95;5.13;;;8.00;99.90;;;;;;4996283;28;20037;-33
2022/02/02 07:58:47;;;;;;;39.10;4.38;;;8.10;99.90;;;;;;4994961;28;20022;-31
2022/02/02 08:01:14;;;;;;;30.40;3.97;;;8.10;99.90;;;;;;4995036;28;20041;-34
2022/02/02 08:03:44;;;;;;;34.72;3.72;;;8.10;99.90;;;;;;4994359;28;20018;-35
2022/02/02 08:06:11;;;;;;;22.60;3.20;;;8.20;99.90;;;;;;4995201;28;20109;-35
2022/02/02 08:08:39;;;;;;;28.23;4.67;;;8.20;99.90;;;;;;4997722;28;20061;-35
2022/02/02 08:11:08;;;;;;;25.55;4.00;;;8.30;99.90;;;;;;4994820;28;20300;-35
2022/02/02 08:13:40;;;;;;;32.58;4.63;;;8.20;99.90;;;;;;4994645;28;20096;-40
2022/02/02 08:16:10;;;;;;;37.30;4.57;;;8.30;99.90;;;;;;4994514;28;20022;-43
2022/02/02 08:18:38;;;;;;;24.58;4.15;;;8.30;99.90;;;;;;5000586;28;20026;-32
2022/02/02 08:21:04;;;;;;;27.48;4.20;;;8.30;99.90;;;;;;5013740;28;20025;-37
2022/02/02 08:23:29;;;;;;;42.50;5.00;;;8.30;99.90;;;;;;5012730;28;20106;-32
2022/02/02 08:25:58;;;;;;;38.80;4.63;;;8.30;99.90;;;;;;4994969;28;20108;-32
2022/02/02 08:28:24;;;;;;;42.63;6.05;;;8.30;99.90;;;;;;4994464;28;20113;-33
2022/02/02 08:30:50;;;;;;;24.13;3.58;;;8.30;99.90;;;;;;4994386;28;20031;-34
2022/02/02 08:33:21;;;;;;;55.00;5.43;;;8.30;99.90;;;;;;5004303;28;20024;-35
2022/02/02 08:35:51;;;;;;;25.85;3.70;;;8.30;99.90;;;;;;5010071;28;20034;-36
2022/02/02 08:38:33;;;;;;;33.20;4.53;;;8.30;99.90;;;;;;5013317;28;20071;-38
2022/02/02 08:41:05;;;;;;;32.67;4.85;;;8.30;99.90;;;;;;5012933;28;20470;-34
2022/02/02 08:43:39;;;;;;;19.70;4.57;;;8.40;99.90;;;;;;4996640;28;20132;-34
2022/02/02 08:46:13;;;;;;;28.13;2.90;;;8.20;99.90;;;;;;4994240;28;20483;-39
2022/02/02 08:48:42;;;;;;;35.17;6.30;;;8.20;99.90;;;;;;5000858;28;20382;-35
2022/02/02 08:51:13;;;;;;;53.88;7.18;;;8.30;99.90;;;;;;5000788;28;20034;-38
2022/02/02 08:56:36;;;;;;;;;;;8.30;99.90;;;;;;5013950;28;20029;-33
2022/02/02 09:01:51;;;;;;;30.17;4.13;;;8.30;99.90;;;;;;5012235;28;20037;-38
2022/02/02 09:07:02;;;;;;;29.52;4.68;;;8.50;99.90;;;;;;5002467;28;20128;-33
2022/02/02 09:09:53;;;;;;;23.20;4.38;;;8.50;99.90;;;;;;4993622;28;20034;-32
2022/02/02 09:34:21;;;;;;;31.60;4.00;;;9.10;99.90;;;;;;5010079;28;20033;-32
2022/02/02 09:36:47;;;;;;;;;;;9.00;99.90;;;;;;4993740;28;20030;-36
2022/02/02 09:39:22;;;;;;;30.27;4.10;;;9.00;99.90;;;;;;4993190;28;20001;-35
2022/02/02 09:44:18;;;;;;;21.95;4.68;;;9.00;99.90;;;;;;4993258;28;20117;-35
2022/02/02 09:47:06;;;;;;;22.58;4.50;;;9.10;99.90;;;;;;4995064;28;20029;-37
2022/02/02 09:49:45;;;;;;;31.38;5.00;;;9.20;99.90;;;;;;5001519;28;20480;-31
2022/02/02 09:52:14;;;;;;;23.83;3.30;;;9.20;99.90;;;;;;5006811;28;20038;-31
2022/02/02 10:02:49;;;;;;;28.65;5.47;;;9.40;99.90;;;;;;5010624;28;20022;-34
2022/02/02 10:08:49;;;;;;;20.92;2.88;;;9.70;99.90;;;;;;5009164;28;20045;-32
2022/02/02 10:15:48;;;;;;;47.05;4.10;;;9.70;99.90;;;;;;5008375;28;20038;-33
2022/02/02 10:18:18;;;;;;;22.63;3.03;;;9.90;99.90;;;;;;5012651;28;20030;-31
2022/02/02 10:20:45;;;;;;;22.40;4.18;;;9.90;99.90;;;;;;5003460;28;20486;-32
2022/02/02 10:23:11;;;;;;;23.25;3.00;;;10.00;99.90;;;;;;4994218;28;20025;-31
2022/02/02 10:25:40;;;;;;;28.58;4.03;;;10.00;99.90;;;;;;5011885;28;20391;-36
2022/02/02 10:28:10;;;;;;;26.65;3.90;;;10.00;99.90;;;;;;5016326;28;20029;-34
2022/02/02 10:30:37;;;;;;;23.10;2.47;;;9.90;99.90;;;;;;5007714;28;20053;-37
2022/02/02 10:33:05;;;;;;;34.33;3.45;;;9.80;99.90;;;;;;5016041;28;20018;-34
2022/02/02 10:35:41;;;;;;;21.67;3.53;;;9.70;99.90;;;;;;5015981;28;20030;-33
2022/02/02 10:38:14;;;;;;;33.15;4.72;;;9.80;99.90;;;;;;5015075;28;20018;-36
2022/02/02 10:40:53;;;;;;;40.20;4.05;;;9.60;99.90;;;;;;5016139;28;20093;-32
2022/02/02 10:43:32;;;;;;;27.40;3.55;;;9.60;99.90;;;;;;5016182;28;20119;-33
2022/02/02 10:46:07;;;;;;;21.98;2.95;;;9.50;99.90;;;;;;5015884;28;20022;-35
2022/02/02 10:48:38;;;;;;;21.77;3.40;;;9.60;99.90;;;;;;5010338;28;20101;-30
2022/02/02 10:51:20;;;;;;;18.23;2.45;;;9.80;99.90;;;;;;5008278;28;20065;-37
2022/02/02 10:56:45;;;;;;;20.73;3.70;;;10.00;99.90;;;;;;5014305;28;20041;-38
2022/02/02 11:06:35;;;;;;;23.90;3.03;;;9.90;99.90;;;;;;5006038;28;20061;-38
2022/02/02 11:07:15;;;;;;;26.80;4.05;;;10.00;99.90;;;;;;5015232;28;20077;-36
2022/02/02 11:09:44;;;;;;;9.32;2.08;;;10.10;99.90;;;;;;5013454;28;20483;-31
2022/02/02 11:12:11;;;;;;;21.08;2.55;;;10.00;99.90;;;;;;5012232;28;20021;-31
2022/02/02 11:14:58;;;;;;;22.85;4.05;;;9.90;99.90;;;;;;5013140;28;20108;-39
2022/02/02 11:17:42;;;;;;;;;;;9.90;99.90;;;;;;5015421;28;20038;-39
2022/02/02 11:20:11;;;;;;;15.63;2.33;;;9.90;99.90;;;;;;5005023;28;20401;-46
2022/02/02 11:22:48;;;;;;;18.25;2.95;;;9.90;99.90;;;;;;4995669;28;20033;-38
2022/02/02 11:25:13;;;;;;;20.67;3.83;;;9.80;99.90;;;;;;4995641;28;20034;-60
2022/02/02 11:27:39;;;;;;;19.90;3.40;;;9.80;99.90;;;;;;4995521;28;20391;-39
2022/02/02 11:30:29;;;;;;;22.30;2.92;;;9.90;99.90;;;;;;5007260;28;20080;-39
2022/02/02 11:33:18;;;;;;;17.70;3.15;;;10.00;99.90;;;;;;5014104;28;20501;-40
2022/02/02 11:35:46;;;;;;;23.48;2.75;;;10.10;99.90;;;;;;5015057;28;20077;-39
2022/02/02 11:38:26;;;;;;;16.67;2.75;;;10.00;99.90;;;;;;5013980;28;20470;-38
2022/02/02 11:41:09;;;;;;;29.02;4.22;;;10.00;99.90;;;;;;5014352;28;20042;-37
2022/02/02 11:46:46;;;;;;;23.08;3.65;;;10.00;99.90;;;;;;5014892;28;20034;-41
2022/02/02 11:49:20;;;;;;;19.10;3.78;;;10.00;99.90;;;;;;5014392;28;20117;-37
2022/02/02 11:51:51;;;;;;;18.38;2.85;;;10.10;99.90;;;;;;5014611;28;20061;-38
2022/02/02 11:54:19;;;;;;;17.60;4.15;;;10.10;99.90;;;;;;5014815;28;20025;-38
2022/02/02 11:59:58;;;;;;;23.00;4.78;;;10.00;99.90;;;;;;5005075;28;20042;-39
2022/02/02 13:00:12;;;;;;;14.65;3.63;;;11.00;99.90;;;;;;5013766;28;20037;-40
2022/02/02 13:02:45;;;;;;;16.98;2.63;;;11.10;99.90;;;;;;5013012;28;20018;-39
2022/02/02 13:05:11;;;;;;;17.80;2.78;;;11.10;99.90;;;;;;5013665;28;20026;-39
2022/02/02 13:07:38;;;;;;;9.68;2.17;;;11.00;99.90;;;;;;5008626;28;20050;-39
2022/02/02 13:10:06;;;;;;;17.83;3.25;;;11.10;99.90;;;;;;4993905;28;20080;-39
2022/02/02 13:12:44;;;;;;;26.48;4.40;;;11.20;99.90;;;;;;4998980;28;20080;-40
2022/02/02 13:15:32;;;;;;;18.67;2.95;;;11.30;99.90;;;;;;5013164;28;20445;-38
2022/02/02 13:20:37;;;;;;;12.60;2.50;;;11.60;99.90;;;;;;5005026;28;20034;-39
2022/02/02 13:23:09;;;;;;;16.38;2.67;;;11.70;99.90;;;;;;5013484;28;20034;-40
2022/02/02 13:25:36;;;;;;;9.60;2.17;;;11.80;99.90;;;;;;5013397;28;20030;-40
2022/02/02 13:28:02;;;;;;;19.65;2.70;;;12.00;99.90;;;;;;5010914;28;20022;-37
2022/02/02 13:30:41;;;;;;;15.88;3.05;;;12.00;99.90;;;;;;5012210;28;20490;-55
2022/02/02 13:33:36;;;;;;;10.30;2.42;;;12.00;99.90;;;;;;4999453;28;20356;-40
2022/02/02 13:36:21;;;;;;;16.33;2.65;;;12.00;99.90;;;;;;4997013;28;20046;-39
2022/02/02 13:44:46;;;;;;;19.17;4.28;;;11.70;99.90;;;;;;5012848;28;20522;-37
2022/02/02 13:48:08;;;;;;;35.63;4.03;;;11.50;99.90;;;;;;4993181;28;20514;-40
2022/02/02 13:50:41;;;;;;;18.33;3.50;;;11.40;99.90;;;;;;5006529;28;20100;-43
2022/02/02 13:59:27;;;;;;;19.65;3.08;;;11.50;99.90;;;;;;5011224;28;20037;-40
2022/02/02 14:33:25;;;;;;;13.77;2.92;;;11.20;99.90;;;;;;5016162;28;20160;-40
2022/02/02 14:35:56;;;;;;;23.15;4.18;;;11.20;99.90;;;;;;5015893;28;20062;-52
2022/02/02 14:38:22;;;;;;;11.57;2.08;;;11.20;99.90;;;;;;5013437;28;20568;-65
2022/02/02 14:43:22;;;;;;;16.25;3.22;;;11.40;99.90;;;;;;4996615;28;20494;-38
2022/02/02 14:45:53;;;;;;;20.67;2.97;;;11.50;99.90;;;;;;4996347;28;20033;-41
2022/02/02 14:48:27;;;;;;;17.40;3.10;;;11.60;99.90;;;;;;4996105;28;20117;-40
2022/02/02 15:28:04;;;;;;;12.25;2.60;;;10.50;99.90;;;;;;5013749;28;20107;-40
2022/02/02 15:30:58;;;;;;;16.52;2.42;;;10.60;99.90;;;;;;5011756;28;20456;-43
2022/02/02 15:33:21;;;;;;;9.17;2.00;;;10.60;99.90;;;;;;4998683;28;21799;-41
2022/02/02 15:35:49;;;;;;;23.80;3.28;;;10.70;99.90;;;;;;5011764;28;20346;-37
2022/02/02 15:38:21;;;;;;;13.00;2.47;;;10.70;99.90;;;;;;5003574;28;20018;-41
2022/02/02 15:40:53;;;;;;;20.98;3.92;;;10.80;99.90;;;;;;5010288;28;20026;-39
2022/02/02 15:43:30;;;;;;;7.70;3.08;;;10.70;99.90;;;;;;4995309;28;20036;-40
2022/02/02 16:02:21;;;;;;;19.35;3.38;;;10.40;99.90;;;;;;4995173;28;20038;-39
2022/02/02 16:04:47;;;;;;;20.50;3.13;;;10.40;99.90;;;;;;5010502;28;20030;-42
2022/02/02 16:07:23;;;;;;;12.13;3.85;;;10.30;99.90;;;;;;5014281;28;20033;-40
2022/02/02 16:12:20;;;;;;;8.75;1.98;;;10.30;99.90;;;;;;5014609;28;20104;-42
2022/02/02 16:15:03;;;;;;;15.88;2.40;;;10.30;99.90;;;;;;5014535;28;20026;-39
2022/02/02 16:38:39;;;;;;;11.75;2.60;;;10.00;99.90;;;;;;5013191;28;20041;-38
2022/02/02 16:42:55;;;;;;;11.93;2.35;;;10.10;99.90;;;;;;5009941;28;20029;-39
2022/02/02 16:43:50;;;;;;;11.57;3.05;;;10.10;99.90;;;;;;5013690;28;20556;-39
2022/02/02 16:46:16;;;;;;;9.25;2.83;;;10.10;99.90;;;;;;5013286;28;20026;-41
2022/02/02 16:48:41;;;;;;;11.95;2.42;;;10.10;99.90;;;;;;4997504;28;20057;-40
2022/02/02 16:51:08;;;;;;;9.50;3.15;;;10.20;99.90;;;;;;4995394;28;20471;-42
2022/02/02 16:53:42;;;;;;;11.57;2.55;;;10.20;99.90;;;;;;5013439;28;20486;-42
2022/02/02 16:56:27;;;;;;;5.65;2.50;;;10.20;99.90;;;;;;5009346;28;20117;-40
2022/02/02 17:29:45;;;;;;;8.85;2.50;;;10.20;99.90;;;;;;5013358;28;20080;-44
2022/02/02 17:34:24;;;;;;;10.18;2.38;;;10.10;99.90;;;;;;5013330;28;20072;-41
2022/02/02 17:37:04;;;;;;;9.13;2.65;;;10.10;99.90;;;;;;4994923;28;20426;-42
2022/02/02 17:39:51;;;;;;;9.77;1.92;;;10.10;99.90;;;;;;4993526;28;20089;-41
2022/02/02 17:43:09;;;;;;;5.97;2.47;;;10.10;99.90;;;;;;5005256;28;20486;-43
2022/02/02 17:45:24;;;;;;;18.05;3.33;;;10.10;99.90;;;;;;5012321;28;20049;-39
2022/02/02 18:12:32;;;;;;;9.13;1.88;;;10.10;99.90;;;;;;5012842;28;20296;-41
2022/02/02 18:20:33;;;;;;;8.30;2.70;;;10.00;99.90;;;;;;5003577;28;20053;-41
2022/02/02 18:25:50;;;;;;;6.57;3.45;;;10.00;99.90;;;;;;5012436;28;20529;-39
2022/02/02 18:34:12;;;;;;;12.73;3.50;;;10.00;99.90;;;;;;5012590;28;20569;-38
2022/02/02 18:36:38;;;;;;;10.38;3.65;;;9.90;99.90;;;;;;5002552;28;20034;-40
2022/02/02 18:54:44;;;;;;;9.43;5.15;;;9.90;99.90;;;;;;5015758;28;20080;-38
2022/02/02 18:57:42;;;;;;;13.63;4.85;;;9.80;99.90;;;;;;4994403;28;20526;-38
2022/02/02 19:38:29;;;;;;;14.25;6.75;;;9.80;99.90;;;;;;5014888;28;20525;-41
2022/02/02 19:55:16;;;;;;;18.77;8.18;;;9.80;99.90;;;;;;5003669;28;20525;-40
2022/02/02 20:08:01;;;;;;;28.30;11.00;;;9.70;99.90;;;;;;5014339;28;20038;-40
2022/02/02 20:13:11;;;;;;;23.92;10.75;;;9.80;99.90;;;;;;5003258;28;20121;-39
2022/02/02 20:15:39;;;;;;;29.80;11.25;;;9.80;99.90;;;;;;5012183;28;20105;-40
2022/02/02 20:18:08;;;;;;;28.42;10.70;;;9.70;99.90;;;;;;5013284;28;20371;-41
2022/02/02 20:20:38;;;;;;;29.75;12.98;;;9.70;99.90;;;;;;4997727;28;20030;-40
2022/02/02 20:23:05;;;;;;;29.48;11.35;;;9.70;99.90;;;;;;5012959;28;20029;-39
2022/02/02 20:25:32;;;;;;;31.60;12.47;;;9.70;99.90;;;;;;5003242;28;20021;-37
2022/02/02 20:28:06;;;;;;;33.05;12.45;;;9.70;99.90;;;;;;5002034;28;20106;-45
2022/02/02 20:30:36;;;;;;;32.30;14.18;;;9.70;99.90;;;;;;5011184;28;20084;-37
2022/02/02 20:33:02;;;;;;;30.70;12.30;;;9.70;99.90;;;;;;5013340;28;20497;-35
2022/02/02 20:35:28;;;;;;;30.45;13.57;;;9.70;99.90;;;;;;5012269;28;20022;-34
2022/02/02 20:38:12;;;;;;;31.48;12.57;;;9.70;99.90;;;;;;5013012;28;20030;-49
2022/02/02 20:40:38;;;;;;;33.78;12.68;;;9.70;99.90;;;;;;5010941;28;20091;-42
2022/02/02 20:46:05;;;;;;;29.92;12.13;;;9.60;99.90;;;;;;5011657;28;20394;-40
2022/02/02 21:09:51;;;;;;;28.40;11.93;;;9.70;99.90;;;;;;5012876;28;20042;-41
2022/02/02 21:15:10;;;;;;;28.17;12.07;;;9.70;99.90;;;;;;4993971;28;20049;-41
2022/02/02 21:17:38;;;;;;;32.90;12.38;;;9.70;99.90;;;;;;5005668;28;20505;-42
2022/02/02 21:20:14;;;;;;;29.67;12.68;;;9.70;99.90;;;;;;5005406;28;20104;-41
2022/02/02 21:24:05;;;;;;;30.52;12.70;;;9.70;99.90;;;;;;4992277;28;20121;-42
2022/02/02 21:25:40;;;;;;;27.55;11.65;;;9.80;99.90;;;;;;4988155;28;20173;-42
2022/02/02 21:28:09;;;;;;;36.20;12.27;;;9.80;99.90;;;;;;4992787;28;20432;-41
2022/02/02 21:30:37;;;;;;;24.77;11.30;;;9.70;99.90;;;;;;5010035;28;20037;-41
2022/02/02 21:33:04;;;;;;;24.95;11.90;;;9.80;99.90;;;;;;5011204;28;20118;-41
2022/02/02 21:35:30;;;;;;;32.63;12.98;;;9.70;99.90;;;;;;5010105;28;20030;-43
2022/02/02 21:38:06;;;;;;;23.13;11.10;;;9.70;99.90;;;;;;5011081;28;20037;-42
2022/02/02 21:40:33;;;;;;;25.92;11.55;;;9.70;99.90;;;;;;5011271;28;20034;-41
2022/02/02 21:42:59;;;;;;;22.85;10.52;;;9.70;99.90;;;;;;5009243;28;20026;-42
2022/02/02 21:45:28;;;;;;;24.10;10.05;;;9.70;99.90;;;;;;5009830;28;20029;-41
2022/02/02 21:47:53;;;;;;;17.27;9.35;;;9.70;99.90;;;;;;5006667;28;20487;-57
2022/02/02 21:50:20;;;;;;;19.33;9.30;;;9.70;99.90;;;;;;4995314;28;20022;-38
2022/02/02 21:52:47;;;;;;;20.95;9.55;;;9.70;99.90;;;;;;4994404;28;20557;-41
2022/02/02 21:55:17;;;;;;;20.63;9.02;;;9.80;99.90;;;;;;4997953;28;20065;-40
2022/02/02 21:57:44;;;;;;;16.42;8.63;;;9.70;99.90;;;;;;5007590;28;20558;-41
2022/02/02 22:00:12;;;;;;;26.40;8.63;;;9.70;99.90;;;;;;5004792;28;20022;-40
2022/02/02 22:02:39;;;;;;;21.95;8.95;;;9.60;99.90;;;;;;5006144;28;20065;-41
2022/02/02 22:05:07;;;;;;;21.52;8.25;;;9.60;99.90;;;;;;5007895;28;20080;-38
2022/02/02 22:07:33;;;;;;;19.20;8.20;;;9.60;99.90;;;;;;5009529;28;20037;-40
2022/02/02 22:10:00;;;;;;;20.60;9.55;;;9.60;99.90;;;;;;5010524;28;20034;-40
2022/02/02 22:12:26;;;;;;;17.52;7.85;;;9.60;99.90;;;;;;5012920;28;20030;-39
2022/02/02 22:14:53;;;;;;;20.50;7.80;;;9.50;99.90;;;;;;5012950;28;20398;-38
2022/02/02 22:17:21;;;;;;;19.27;8.07;;;9.50;99.90;;;;;;4992929;28;20037;-37
2022/02/02 22:19:51;;;;;;;21.00;9.50;;;9.50;99.90;;;;;;5008337;28;20544;-41
2022/02/02 22:22:16;;;;;;;22.13;7.75;;;9.50;99.90;;;;;;5006391;28;20034;-40
2022/02/02 22:24:42;;;;;;;21.55;9.27;;;9.50;99.90;;;;;;5013634;28;20397;-41
2022/02/02 22:27:08;;;;;;;19.67;7.97;;;9.50;99.90;;;;;;5013242;28;20026;-44
2022/02/02 22:29:34;;;;;;;17.20;8.73;;;9.50;99.90;;;;;;4998907;28;20037;-39
2022/02/02 22:32:00;;;;;;;22.83;8.43;;;9.50;99.90;;;;;;5003190;28;20407;-40
2022/02/02 22:34:26;;;;;;;20.90;8.93;;;9.50;99.90;;;;;;5013872;28;20410;-40
2022/02/02 22:36:54;;;;;;;29.00;8.90;;;9.50;99.90;;;;;;5013279;28;20026;-48
2022/02/02 22:39:20;;;;;;;24.83;8.82;;;9.60;99.90;;;;;;5014399;28;20021;-40
2022/02/02 22:41:46;;;;;;;24.40;8.60;;;9.50;99.90;;;;;;5014828;28;20024;-39
2022/02/02 22:44:13;;;;;;;18.73;8.23;;;9.60;99.90;;;;;;5009965;28;20022;-42
2022/02/02 22:46:40;;;;;;;17.98;9.43;;;9.60;99.90;;;;;;5014749;28;20048;-42
2022/02/02 22:49:06;;;;;;;17.75;8.65;;;9.60;99.90;;;;;;5013847;28;20026;-40
2022/02/02 22:51:32;;;;;;;22.33;9.25;;;9.50;99.90;;;;;;5016138;28;20033;-40
2022/02/02 22:53:59;;;;;;;19.27;8.70;;;9.60;99.90;;;;;;5011774;28;20438;-40
2022/02/02 22:56:25;;;;;;;30.05;9.50;;;9.60;99.90;;;;;;5014820;28;20429;-41
2022/02/02 22:58:51;;;;;;;18.92;9.00;;;9.60;99.90;;;;;;5015834;28;20022;-40
2022/02/02 23:01:18;;;;;;;20.88;9.27;;;9.50;99.90;;;;;;5015591;28;20034;-39
2022/02/02 23:03:45;;;;;;;20.90;9.27;;;9.50;99.90;;;;;;5015608;28;20029;-40
2022/02/02 23:06:11;;;;;;;28.45;9.57;;;9.60;99.90;;;;;;5015812;28;20474;-42
2022/02/02 23:08:38;;;;;;;20.35;10.10;;;9.50;99.90;;;;;;5015336;28;20037;-42
2022/02/02 23:11:04;;;;;;;21.38;10.20;;;9.40;99.90;;;;;;5003994;28;20084;-39
2022/02/02 23:13:29;;;;;;;26.10;10.07;;;9.40;99.90;;;;;;4995928;28;20100;-40
2022/02/02 23:16:07;;;;;;;19.55;8.70;;;9.40;99.90;;;;;;4995902;28;20495;-39
2022/02/02 23:18:36;;;;;;;17.45;8.88;;;9.40;99.90;;;;;;5001436;28;20056;-40
2022/02/02 23:21:06;;;;;;;21.00;10.25;;;9.40;99.90;;;;;;5013338;28;20022;-39
2022/02/02 23:23:43;;;;;;;19.55;9.30;;;9.40;99.90;;;;;;5013692;28;20117;-40
2022/02/02 23:26:10;;;;;;;22.30;9.85;;;9.40;99.90;;;;;;5012074;28;20510;-48
2022/02/02 23:28:41;;;;;;;17.23;9.40;;;9.40;99.90;;;;;;5013607;28;20433;-40
2022/02/02 23:31:10;;;;;;;17.00;9.13;;;9.40;99.90;;;;;;5011241;28;20021;-43
2022/02/02 23:33:41;;;;;;;20.52;9.43;;;9.50;99.90;;;;;;4998977;28;20106;-40
2022/02/02 23:36:08;;;;;;;20.63;9.63;;;9.50;99.90;;;;;;5012503;28;20038;-42
2022/02/02 23:38:34;;;;;;;24.30;10.02;;;9.50;99.90;;;;;;5014185;28;20359;-39
2022/02/02 23:43:43;;;;;;;24.90;9.02;;;9.50;99.90;;;;;;4999923;28;20041;-40
2022/02/02 23:46:12;;;;;;;22.73;9.65;;;9.50;99.90;;;;;;5011447;28;20030;-38
2022/02/02 23:48:52;;;;;;;21.77;9.75;;;9.50;99.90;;;;;;5012191;28;20033;-40
2022/02/02 23:51:29;;;;;;;22.75;9.18;;;9.50;99.90;;;;;;5000975;28;20033;-40
2022/02/02 23:54:01;;;;;;;26.38;9.57;;;9.50;99.90;;;;;;5013867;28;20026;-44
2022/02/02 23:57:04;;;;;;;23.25;8.80;;;9.50;99.90;;;;;;5012622;28;20026;-40
